Time;durP1;ratioP1;P1;durP2;ratioP2;P2;SDS_P1;SDS_P2;PMS_P1;PMS_P2;Temp;Humidity;BMP_temperature;BMP_pressure;BME280_temperature;BME280_humidity;BME280_pressure;Samples;Min_cycle;Max_cycle;Signal;HPM_P1;HPM_P2
2022/11/06 00:00:34;;;;;;;71.33;37.83;;;;;;;11.97;97.04;94223.31;5031225;28;20253;-84
2022/11/06 00:03:03;;;;;;;62.77;34.53;;;;;;;12.01;96.46;94229.59;5042903;28;20253;-91
2022/11/06 00:08:15;;;;;;;61.87;32.83;;;;;;;11.91;95.98;94212.81;5041558;28;20193;-91
2022/11/06 00:10:42;;;;;;;54.80;30.97;;;;;;;12.00;95.56;94233.25;5041116;28;20199;-86
2022/11/06 00:13:09;;;;;;;50.57;30.43;;;;;;;11.93;95.45;94209.97;5025099;28;20250;-82
2022/11/06 00:15:36;;;;;;;58.50;30.60;;;;;;;12.01;95.56;94219.97;5029395;28;20214;-86
2022/11/06 00:18:04;;;;;;;50.97;30.47;;;;;;;11.92;94.76;94203.97;5029747;28;20199;-88
2022/11/06 00:20:31;;;;;;;59.53;31.73;;;;;;;12.14;94.10;94224.09;5027793;28;20195;-87
2022/11/06 00:22:58;;;;;;;47.47;27.93;;;;;;;11.95;94.12;94223.53;5032921;28;20231;-89
2022/11/06 00:25:25;;;;;;;55.13;26.47;;;;;;;11.93;93.31;94215.16;5034501;28;20210;-88
2022/11/06 00:27:52;;;;;;;44.13;25.30;;;;;;;11.94;93.35;94214.16;5038535;28;20321;-87
2022/11/06 00:30:20;;;;;;;46.23;25.27;;;;;;;11.90;92.95;94210.44;5031777;28;20210;-87
2022/11/06 00:32:47;;;;;;;41.40;24.80;;;;;;;11.89;93.12;94214.06;5040363;28;20207;-86
2022/11/06 00:35:15;;;;;;;45.57;25.53;;;;;;;11.84;92.71;94212.16;5037456;28;20194;-86
2022/11/06 00:37:42;;;;;;;47.10;24.67;;;;;;;11.47;92.41;94181.59;5040455;28;21605;-85
2022/11/06 00:40:10;;;;;;;42.20;24.43;;;;;;;11.21;94.88;94206.34;5026148;28;20203;-86
2022/11/06 00:42:37;;;;;;;44.43;27.63;;;;;;;11.00;99.45;94213.00;5035548;28;20307;-86
2022/11/06 00:45:05;;;;;;;48.80;27.47;;;;;;;11.10;99.11;94205.41;5046018;28;20230;-85
2022/11/06 00:47:32;;;;;;;42.03;25.27;;;;;;;11.12;97.51;94195.53;5031741;28;20206;-85
2022/11/06 00:49:59;;;;;;;44.30;25.17;;;;;;;11.34;96.79;94212.06;5023431;28;20191;-83
2022/11/06 00:52:29;;;;;;;43.03;26.00;;;;;;;11.46;95.56;94214.63;5037515;28;20209;-83
2022/11/06 00:54:56;;;;;;;46.67;27.70;;;;;;;11.45;95.53;94194.03;5030229;28;20206;-84
2022/11/06 00:57:23;;;;;;;51.07;27.27;;;;;;;11.52;95.04;94192.06;5031138;28;20226;-85
2022/11/06 00:59:50;;;;;;;42.40;25.90;;;;;;;11.27;94.58;94140.41;5036188;28;20206;-84
2022/11/06 01:02:28;;;;;;;45.50;26.63;;;;;;;11.68;95.20;94201.72;5031652;28;20210;-84
2022/11/06 01:05:12;;;;;;;50.67;27.53;;;;;;;11.73;94.84;94196.63;5023265;28;20203;-84
2022/11/06 01:07:41;;;;;;;46.33;27.53;;;;;;;11.75;94.58;94200.56;5022584;28;20207;-85
2022/11/06 01:10:09;;;;;;;44.30;26.20;;;;;;;11.64;94.82;94193.59;5034675;28;20214;-86
2022/11/06 01:12:35;;;;;;;47.13;26.03;;;;;;;11.29;96.39;94204.19;5034063;28;20202;-86
2022/11/06 01:15:06;;;;;;;47.90;27.00;;;;;;;10.84;96.88;94192.94;5040249;28;20206;-85
2022/11/06 01:17:34;;;;;;;45.07;26.77;;;;;;;10.80;100.00;94194.41;5034285;28;20219;-85
2022/11/06 01:20:01;;;;;;;46.13;26.43;;;;;;;10.87;99.35;94189.88;5037152;28;20206;-86
2022/11/06 01:22:34;;;;;;;46.30;26.90;;;;;;;10.98;98.81;94188.25;5031682;28;20218;-88
2022/11/06 01:25:03;;;;;;;46.40;26.33;;;;;;;11.08;98.70;94191.81;5034775;28;20692;-86
2022/11/06 01:27:29;;;;;;;46.17;25.83;;;;;;;11.04;97.52;94179.53;5042634;28;20260;-87
2022/11/06 01:29:56;;;;;;;44.60;27.17;;;;;;;11.01;97.35;94175.56;5037348;28;20219;-86
2022/11/06 01:32:23;;;;;;;49.13;28.03;;;;;;;11.06;97.65;94180.06;5040449;28;20252;-87
2022/11/06 01:34:51;;;;;;;48.43;28.13;;;;;;;11.15;98.08;94186.47;5034826;28;20209;-87
2022/11/06 01:37:18;;;;;;;47.10;27.07;;;;;;;11.23;97.71;94180.91;5037450;28;20225;-87
2022/11/06 01:39:45;;;;;;;55.73;28.83;;;;;;;11.23;97.42;94188.69;5031742;28;20207;-87
2022/11/06 01:42:20;;;;;;;56.17;30.93;;;;;;;11.17;97.62;94184.44;5041421;28;20206;-86
2022/11/06 01:45:20;;;;;;;61.30;30.23;;;;;;;11.23;98.31;94176.50;5032904;28;20229;-88
2022/11/06 01:47:48;;;;;;;60.03;34.03;;;;;;;11.28;97.83;94178.41;5039592;28;20206;-86
2022/11/06 01:50:17;;;;;;;60.10;35.73;;;;;;;11.08;98.85;94185.84;5034860;28;20190;-86
2022/11/06 01:52:45;;;;;;;55.67;34.57;;;;;;;10.66;100.00;94180.09;5032182;28;20282;-86
2022/11/06 01:55:17;;;;;;;63.17;33.63;;;;;;;10.31;100.00;94180.13;5037748;28;20302;-85
2022/11/06 01:57:47;;;;;;;61.77;35.43;;;;;;;10.29;100.00;94171.00;5043853;28;20273;-91
2022/11/06 02:00:14;;;;;;;56.73;32.90;;;;;;;10.39;100.00;94153.81;5038841;28;20210;-88
2022/11/06 02:02:41;;;;;;;57.27;30.23;;;;;;;10.50;100.00;94152.22;5032062;28;20585;-87
2022/11/06 02:05:09;;;;;;;48.37;29.20;;;;;;;10.75;100.00;94163.91;5024741;28;20199;-86
2022/11/06 02:07:36;;;;;;;45.27;26.23;;;;;;;10.82;100.00;94156.75;5036094;28;20198;-86
2022/11/06 02:10:05;;;;;;;37.07;21.47;;;;;;;10.95;100.00;94149.72;5031259;28;20587;-87
2022/11/06 02:12:42;;;;;;;30.20;18.57;;;;;;;11.16;100.00;94160.25;5034306;28;20210;-88
2022/11/06 02:15:17;;;;;;;32.17;17.73;;;;;;;11.40;100.00;94156.50;5031896;28;20198;-87
2022/11/06 02:17:57;;;;;;;26.67;15.93;;;;;;;11.60;100.00;94153.44;5024331;28;20214;-88
2022/11/06 02:20:31;;;;;;;31.87;14.77;;;;;;;11.81;99.78;94162.38;5032303;28;20209;-88
2022/11/06 02:23:13;;;;;;;27.57;14.17;;;;;;;11.98;98.94;94163.16;5029005;28;20227;-88
2022/11/06 02:25:50;;;;;;;24.57;13.37;;;;;;;11.92;97.34;94128.44;5024170;28;20198;-91
2022/11/06 02:28:27;;;;;;;26.50;12.13;;;;;;;12.20;96.51;94147.59;5035759;28;20585;-88
2022/11/06 02:30:58;;;;;;;26.30;12.47;;;;;;;12.16;94.84;94125.66;5033094;28;20216;-88
2022/11/06 02:33:29;;;;;;;18.13;11.33;;;;;;;12.17;94.60;94135.84;5039005;28;20272;-90
2022/11/06 02:36:01;;;;;;;21.93;10.93;;;;;;;11.94;95.71;94130.84;5045207;28;20190;-89
2022/11/06 02:38:35;;;;;;;22.33;10.97;;;;;;;12.21;95.92;94154.38;5035414;28;20270;-88
2022/11/06 02:41:06;;;;;;;23.60;10.90;;;;;;;12.44;95.04;94173.19;5035452;28;20198;-90
2022/11/06 02:43:39;;;;;;;22.97;11.60;;;;;;;12.24;93.99;94131.22;5037441;28;20203;-88
2022/11/06 02:46:11;;;;;;;24.87;11.73;;;;;;;12.59;93.50;94140.53;5037563;28;20664;-91
2022/11/06 02:48:43;;;;;;;19.30;10.93;;;;;;;12.66;92.74;94156.78;5033886;28;20210;-90
2022/11/06 02:51:14;;;;;;;20.17;10.63;;;;;;;12.90;92.45;94182.34;5032960;28;20227;-89
2022/11/06 02:53:44;;;;;;;22.93;10.80;;;;;;;12.99;92.11;94177.50;5033158;28;21057;-88
2022/11/06 02:56:15;;;;;;;18.50;10.43;;;;;;;13.07;91.58;94187.53;5035052;28;20198;-89
2022/11/06 02:58:47;;;;;;;18.93;9.93;;;;;;;12.84;91.09;94140.84;5041299;28;20202;-90
2022/11/06 03:01:22;;;;;;;20.83;9.43;;;;;;;12.93;90.76;94149.78;5032136;28;20208;-90
2022/11/06 03:03:53;;;;;;;13.07;9.10;;;;;;;13.26;90.56;94194.00;5040632;28;20202;-86
2022/11/06 03:06:29;;;;;;;20.33;9.27;;;;;;;13.23;90.41;94189.28;5029535;28;20583;-85
2022/11/06 03:09:02;;;;;;;15.73;10.13;;;;;;;13.09;89.92;94156.78;5038207;28;20201;-88
2022/11/06 03:11:32;;;;;;;23.60;10.60;;;;;;;13.31;90.11;94188.03;5034004;28;20296;-88
2022/11/06 03:14:06;;;;;;;16.57;10.97;;;;;;;12.83;90.67;94162.72;5037656;28;20626;-87
2022/11/06 03:16:41;;;;;;;20.93;10.43;;;;;;;12.62;92.06;94187.75;5029054;28;20666;-88
2022/11/06 03:19:17;;;;;;;16.10;9.77;;;;;;;12.56;94.28;94185.31;5036204;28;21314;-87
2022/11/06 03:22:02;;;;;;;22.17;10.87;;;;;;;12.68;93.59;94206.84;5033763;28;20237;-87
2022/11/06 03:24:33;;;;;;;19.23;10.80;;;;;;;12.80;93.75;94216.16;5029121;28;20301;-89
2022/11/06 03:27:09;;;;;;;19.33;12.00;;;;;;;12.86;93.32;94217.78;5035310;28;20584;-85
2022/11/06 03:29:43;;;;;;;25.10;11.67;;;;;;;12.87;93.18;94211.53;5038973;28;20209;-87
2022/11/06 03:32:17;;;;;;;23.83;11.77;;;;;;;12.61;93.29;94160.09;5035247;28;20206;-86
2022/11/06 03:34:53;;;;;;;18.03;10.70;;;;;;;12.77;94.74;94213.25;5034226;28;20198;-86
2022/11/06 03:37:26;;;;;;;21.93;11.07;;;;;;;12.72;95.43;94221.78;5034675;28;20222;-87
2022/11/06 03:39:57;;;;;;;19.17;10.47;;;;;;;12.72;95.82;94213.19;5037763;28;20689;-87
2022/11/06 03:42:28;;;;;;;21.33;10.63;;;;;;;12.74;96.09;94211.09;5037377;28;20202;-86
2022/11/06 03:45:02;;;;;;;19.13;10.67;;;;;;;12.74;95.83;94221.53;5016731;28;20188;-87
2022/11/06 03:47:33;;;;;;;17.37;9.90;;;;;;;12.77;96.21;94223.66;5028331;28;20182;-87
2022/11/06 03:50:05;;;;;;;22.10;10.83;;;;;;;12.65;95.94;94210.75;5041568;28;20213;-85
2022/11/06 03:52:37;;;;;;;20.50;10.50;;;;;;;12.45;96.50;94194.84;5042010;28;20214;-86
2022/11/06 03:55:08;;;;;;;18.83;10.53;;;;;;;12.26;98.02;94209.97;5043859;28;20221;-85
2022/11/06 03:57:41;;;;;;;17.17;10.23;;;;;;;12.28;100.00;94207.91;5040798;28;20297;-86
2022/11/06 04:00:11;;;;;;;20.37;10.37;;;;;;;12.36;100.00;94210.09;5035843;28;20225;-86
2022/11/06 04:02:41;;;;;;;23.23;10.90;;;;;;;12.33;99.81;94189.72;5033634;28;20218;-88
2022/11/06 04:05:14;;;;;;;20.30;10.43;;;;;;;12.41;98.80;94194.53;5033479;28;20225;-86
2022/11/06 04:13:56;;;;;;;19.40;10.67;;;;;;;12.57;98.65;94213.78;5045216;28;20248;-87
2022/11/06 04:16:09;;;;;;;18.57;9.83;;;;;;;12.60;98.36;94220.31;5034291;28;20269;-86
2022/11/06 04:18:36;;;;;;;16.43;10.47;;;;;;;12.32;100.00;94226.47;5034289;28;20591;-87
2022/11/06 04:21:24;;;;;;;18.80;10.13;;;;;;;12.15;100.00;94221.25;5039866;28;20214;-86
2022/11/06 04:27:29;;;;;;;18.87;11.00;;;;;;;12.18;100.00;94212.94;5041038;28;20252;-85
2022/11/06 04:30:05;;;;;;;20.87;11.20;;;;;;;12.38;100.00;94221.06;5036646;28;20561;-86
2022/11/06 04:32:44;;;;;;;19.57;10.60;;;;;;;12.43;100.00;94225.56;5032180;28;20195;-87
2022/11/06 04:35:20;;;;;;;20.40;10.13;;;;;;;12.48;100.00;94228.22;5040656;28;20592;-87
2022/11/06 04:37:56;;;;;;;20.07;10.70;;;;;;;12.50;100.00;94215.75;5033331;28;20313;-88
2022/11/06 04:40:28;;;;;;;21.63;11.50;;;;;;;12.57;100.00;94223.41;5030512;28;20622;-84
2022/11/06 04:43:00;;;;;;;20.53;10.73;;;;;;;12.63;100.00;94222.44;5035385;28;20215;-84
2022/11/06 04:45:32;;;;;;;21.23;10.97;;;;;;;12.58;100.00;94206.75;5048684;28;20193;-83
2022/11/06 04:48:03;;;;;;;20.50;10.90;;;;;;;12.78;100.00;94233.88;5036879;28;20569;-87
2022/11/06 04:50:35;;;;;;;19.20;10.43;;;;;;;12.74;100.00;94217.13;5036282;28;20196;-87
2022/11/06 04:53:04;;;;;;;20.97;10.60;;;;;;;12.76;100.00;94235.13;5036094;28;20196;-86
2022/11/06 04:55:31;;;;;;;21.43;11.03;;;;;;;12.65;100.00;94233.41;5035057;28;20195;-88
2022/11/06 04:57:58;;;;;;;19.97;11.10;;;;;;;12.56;100.00;94224.41;5037659;28;20862;-90
2022/11/06 05:00:25;;;;;;;17.30;10.77;;;;;;;12.64;100.00;94239.66;5037797;28;20237;-90
2022/11/06 05:02:52;;;;;;;19.80;11.23;;;;;;;12.51;100.00;94220.72;5048287;28;20198;-91
2022/11/06 05:05:20;;;;;;;20.37;11.33;;;;;;;12.51;100.00;94231.16;5049600;28;20195;-87
2022/11/06 05:07:47;;;;;;;20.83;11.57;;;;;;;12.64;100.00;94248.25;5023851;28;20203;-88
2022/11/06 05:10:14;;;;;;;24.87;12.20;;;;;;;12.62;100.00;94252.13;5025663;28;20659;-86
2022/11/06 05:12:41;;;;;;;22.43;12.47;;;;;;;12.33;100.00;94249.66;5038910;28;20677;-89
2022/11/06 05:15:08;;;;;;;22.73;12.43;;;;;;;12.08;100.00;94257.09;5037179;28;20210;-90
2022/11/06 05:17:35;;;;;;;21.40;12.73;;;;;;;11.85;100.00;94225.97;5042895;28;20223;-91
2022/11/06 05:20:02;;;;;;;20.10;12.80;;;;;;;11.79;100.00;94214.69;5043168;28;20204;-90
2022/11/06 05:25:14;;;;;;;27.13;13.73;;;;;;;11.96;100.00;94279.81;5044480;28;20197;-89
2022/11/06 05:27:41;;;;;;;23.67;13.30;;;;;;;11.88;100.00;94254.16;5031327;28;20199;-87
2022/11/06 05:30:09;;;;;;;19.17;12.50;;;;;;;12.19;100.00;94284.06;5034091;28;20221;-87
2022/11/06 05:32:36;;;;;;;24.57;13.70;;;;;;;12.30;100.00;94280.59;5035454;28;20198;-90
2022/11/06 05:35:03;;;;;;;22.33;13.43;;;;;;;12.44;100.00;94292.28;5037966;28;20202;-88
2022/11/06 05:37:31;;;;;;;24.70;13.47;;;;;;;12.57;100.00;94289.38;5026248;28;20226;-90
2022/11/06 05:39:58;;;;;;;24.20;12.90;;;;;;;12.61;100.00;94287.84;5032994;28;20207;-89
2022/11/06 05:42:25;;;;;;;24.93;13.90;;;;;;;12.41;100.00;94257.06;5036002;28;20660;-89
2022/11/06 05:44:52;;;;;;;23.70;12.63;;;;;;;12.50;100.00;94273.88;5038481;28;20926;-92
2022/11/06 05:47:19;;;;;;;19.10;12.60;;;;;;;12.24;100.00;94245.88;5034499;28;20604;-91
2022/11/06 05:49:47;;;;;;;24.17;13.60;;;;;;;12.67;100.00;94294.72;5034560;28;20203;-95
2022/11/06 05:52:14;;;;;;;23.43;13.00;;;;;;;12.41;100.00;94251.06;5037513;28;20281;-92
2022/11/06 05:54:42;;;;;;;24.83;12.57;;;;;;;12.49;100.00;94268.91;5032495;28;20649;-89
2022/11/06 05:57:09;;;;;;;22.43;13.07;;;;;;;12.47;100.00;94269.16;5036174;28;20804;-88
2022/11/06 05:59:36;;;;;;;23.73;13.40;;;;;;;12.54;100.00;94274.19;5033063;28;20223;-90
2022/11/06 06:02:03;;;;;;;19.97;12.63;;;;;;;12.41;100.00;94238.81;5042565;28;20211;-88
2022/11/06 06:04:30;;;;;;;27.50;13.83;;;;;;;12.91;100.00;94316.97;5039286;28;20198;-88
2022/11/06 06:06:57;;;;;;;24.97;12.47;;;;;;;13.01;100.00;94311.09;5040313;28;20199;-88
2022/11/06 06:09:24;;;;;;;19.47;12.30;;;;;;;12.96;100.00;94303.19;5030607;28;20654;-87
2022/11/06 06:11:53;;;;;;;20.80;12.60;;;;;;;13.01;100.00;94309.28;5036882;28;20704;-85
2022/11/06 06:14:20;;;;;;;21.33;12.87;;;;;;;13.19;100.00;94320.50;5034626;28;20571;-86
2022/11/06 06:16:47;;;;;;;21.53;12.93;;;;;;;13.10;100.00;94301.06;5027118;28;20206;-84
2022/11/06 06:19:14;;;;;;;22.23;13.40;;;;;;;13.20;100.00;94306.41;5037448;28;20225;-88
2022/11/06 06:21:41;;;;;;;24.67;13.97;;;;;;;13.29;100.00;94325.84;5039677;28;20756;-84
2022/11/06 06:24:09;;;;;;;18.20;12.20;;;;;;;13.25;100.00;94325.53;5028177;28;20214;-83
2022/11/06 06:26:36;;;;;;;22.67;13.10;;;;;;;12.93;100.00;94321.94;5029269;28;20207;-87
2022/11/06 06:29:05;;;;;;;22.10;13.77;;;;;;;12.05;100.00;94283.59;5031501;28;20202;-86
2022/11/06 06:31:31;;;;;;;25.03;14.70;;;;;;;12.23;100.00;94339.91;5035594;28;20209;-85
2022/11/06 06:33:58;;;;;;;23.17;15.47;;;;;;;12.05;100.00;94298.44;5029341;28;20227;-86
2022/11/06 06:36:25;;;;;;;24.03;14.80;;;;;;;12.42;100.00;94339.44;5034731;28;20205;-85
2022/11/06 06:41:33;;;;;;;26.13;15.83;;;;;;;12.78;100.00;94350.41;5036388;28;20235;-84
2022/11/06 06:44:00;;;;;;;25.97;15.07;;;;;;;12.68;100.00;94321.56;5031805;28;20198;-86
2022/11/06 06:46:33;;;;;;;23.27;15.33;;;;;;;12.96;100.00;94350.94;5037301;28;20202;-85
2022/11/06 06:49:00;;;;;;;33.30;22.33;;;;;;;13.18;100.00;94361.47;5034789;28;20564;-86
2022/11/06 06:51:27;;;;;;;25.00;14.63;;;;;;;13.05;100.00;94333.06;5031075;28;20677;-86
2022/11/06 06:53:54;;;;;;;22.30;14.63;;;;;;;12.91;100.00;94303.13;5034653;28;20209;-86
2022/11/06 06:56:21;;;;;;;27.53;14.67;;;;;;;13.35;100.00;94364.81;5037741;28;20229;-85
2022/11/06 06:58:48;;;;;;;23.50;14.90;;;;;;;13.40;100.00;94362.25;5036017;28;20592;-86
2022/11/06 07:01:15;;;;;;;25.63;15.50;;;;;;;13.52;100.00;94364.75;5036977;28;20206;-85
2022/11/06 07:03:46;;;;;;;28.13;13.93;;;;;;;13.40;100.00;94356.25;5031845;28;20230;-86
2022/11/06 07:06:13;;;;;;;29.93;14.73;;;;;;;13.47;100.00;94357.66;5033561;28;20190;-84
2022/11/06 07:08:41;;;;;;;27.87;14.47;;;;;;;13.66;100.00;94373.78;5035460;28;20564;-85
2022/11/06 07:11:10;;;;;;;27.30;15.80;;;;;;;13.74;100.00;94375.22;5040157;28;20210;-86
2022/11/06 07:13:37;;;;;;;32.00;15.60;;;;;;;13.77;100.00;94393.78;5036012;28;20237;-87
2022/11/06 07:16:05;;;;;;;22.90;15.23;;;;;;;13.74;100.00;94377.81;5037883;28;20198;-87
2022/11/06 07:18:32;;;;;;;23.07;15.20;;;;;;;13.67;100.00;94377.22;5039703;28;20600;-87
2022/11/06 07:21:00;;;;;;;25.93;14.07;;;;;;;13.75;100.00;94385.41;5034466;28;20562;-85
2022/11/06 07:23:27;;;;;;;26.50;15.70;;;;;;;13.85;100.00;94390.72;5045042;28;20245;-84
2022/11/06 07:25:54;;;;;;;22.83;15.70;;;;;;;13.72;100.00;94372.81;5030468;28;20203;-88
2022/11/06 07:28:21;;;;;;;27.80;13.90;;;;;;;13.92;100.00;94403.59;5030923;28;20203;-86
2022/11/06 07:30:48;;;;;;;25.77;14.17;;;;;;;13.95;100.00;94396.06;5044313;28;20218;-87
2022/11/06 07:33:15;;;;;;;23.20;14.67;;;;;;;13.81;100.00;94394.09;5043806;28;20198;-85
2022/11/06 07:35:42;;;;;;;33.40;15.60;;;;;;;13.50;100.00;94393.72;5035812;28;20214;-86
2022/11/06 07:38:10;;;;;;;32.63;15.33;;;;;;;13.25;100.00;94390.75;5040370;28;20222;-86
2022/11/06 07:40:37;;;;;;;26.33;15.90;;;;;;;13.39;100.00;94406.88;5037624;28;20324;-86
2022/11/06 07:43:05;;;;;;;27.57;15.63;;;;;;;13.46;100.00;94399.66;5033757;28;20191;-87
2022/11/06 07:45:32;;;;;;;25.33;15.93;;;;;;;13.67;100.00;94406.72;5032984;28;20217;-86
2022/11/06 07:47:59;;;;;;;27.93;15.87;;;;;;;13.78;100.00;94410.25;5028278;28;20204;-86
2022/11/06 07:50:27;;;;;;;28.17;16.13;;;;;;;13.65;100.00;94412.19;5033315;28;20285;-89
2022/11/06 07:52:54;;;;;;;25.23;15.73;;;;;;;13.50;100.00;94400.75;5036549;28;20213;-87
2022/11/06 07:55:22;;;;;;;28.93;16.00;;;;;;;13.45;100.00;94405.91;5038102;28;20213;-87
2022/11/06 07:57:49;;;;;;;33.97;16.07;;;;;;;13.53;100.00;94398.44;5038021;28;20203;-89
2022/11/06 08:00:16;;;;;;;31.97;15.57;;;;;;;13.76;100.00;94415.72;5030578;28;20202;-87
2022/11/06 08:02:43;;;;;;;30.07;16.03;;;;;;;13.80;100.00;94403.72;5041033;28;20199;-85
2022/11/06 08:05:10;;;;;;;27.93;16.30;;;;;;;14.00;100.00;94419.66;5041324;28;20217;-87
2022/11/06 08:07:37;;;;;;;26.63;14.97;;;;;;;13.98;100.00;94403.44;5040525;28;20207;-89
2022/11/06 08:10:05;;;;;;;27.67;15.43;;;;;;;14.05;100.00;94401.41;5044474;28;20195;-87
2022/11/06 08:12:33;;;;;;;34.60;18.57;;;;;;;14.31;100.00;94419.97;5044741;28;20203;-90
2022/11/06 08:15:00;;;;;;;27.80;16.50;;;;;;;14.13;100.00;94387.91;5036006;28;20201;-88
2022/11/06 08:17:28;;;;;;;27.80;15.83;;;;;;;14.42;100.00;94430.31;5039117;28;20582;-89
2022/11/06 08:19:56;;;;;;;28.90;15.83;;;;;;;14.04;100.00;94414.72;5034844;28;20225;-87
2022/11/06 08:22:23;;;;;;;27.47;16.60;;;;;;;13.63;100.00;94411.63;5041023;28;20244;-84
2022/11/06 08:24:49;;;;;;;30.33;16.73;;;;;;;13.69;100.00;94432.59;5036450;28;20236;-83
2022/11/06 08:27:16;;;;;;;32.70;17.97;;;;;;;13.71;100.00;94420.84;5041075;28;20198;-90
2022/11/06 08:29:45;;;;;;;29.70;17.67;;;;;;;13.76;100.00;94417.53;5031786;28;20261;-88
2022/11/06 08:32:11;;;;;;;30.03;17.77;;;;;;;14.06;100.00;94441.41;5038690;28;20593;-84
2022/11/06 08:34:38;;;;;;;25.57;16.33;;;;;;;13.98;100.00;94408.66;5038753;28;20210;-85
2022/11/06 08:37:05;;;;;;;29.57;17.57;;;;;;;14.31;100.00;94443.50;5035284;28;20187;-84
2022/11/06 08:39:32;;;;;;;31.77;18.20;;;;;;;14.43;100.00;94439.72;5032401;28;20285;-83
2022/11/06 08:42:00;;;;;;;35.83;18.03;;;;;;;14.45;100.00;94442.91;5035186;28;20200;-84
2022/11/06 08:44:27;;;;;;;34.37;17.53;;;;;;;14.34;100.00;94422.94;5028909;28;20195;-88
2022/11/06 08:46:55;;;;;;;28.03;18.47;;;;;;;14.57;100.00;94446.13;5035686;28;20210;-85
2022/11/06 08:49:22;;;;;;;33.63;19.77;;;;;;;14.55;100.00;94443.00;5044430;28;20263;-84
2022/11/06 08:51:49;;;;;;;31.27;20.47;;;;;;;14.55;100.00;94452.66;5028023;28;20199;-83
2022/11/06 08:54:16;;;;;;;32.30;20.13;;;;;;;14.55;100.00;94461.28;5028549;28;20194;-84
2022/11/06 08:56:43;;;;;;;30.40;20.53;;;;;;;14.44;100.00;94443.94;5037925;28;20210;-84
2022/11/06 08:59:09;;;;;;;31.87;20.03;;;;;;;14.49;100.00;94457.06;5041416;28;20238;-83
2022/11/06 09:01:36;;;;;;;35.00;20.60;;;;;;;14.32;100.00;94473.81;5033908;28;20218;-83
2022/11/06 09:04:05;;;;;;;32.37;20.40;;;;;;;14.00;100.00;94471.91;5030333;28;20222;-83
2022/11/06 09:06:32;;;;;;;33.20;21.93;;;;;;;13.72;100.00;94474.69;5038431;28;20230;-84
2022/11/06 09:08:58;;;;;;;34.77;22.23;;;;;;;13.83;100.00;94475.59;5036196;28;20216;-83
2022/11/06 09:11:25;;;;;;;35.23;21.10;;;;;;;13.85;100.00;94463.88;5039341;28;20203;-84
2022/11/06 09:13:52;;;;;;;32.07;21.47;;;;;;;13.87;100.00;94446.16;5039491;28;20198;-83
2022/11/06 09:16:19;;;;;;;30.57;21.27;;;;;;;14.13;100.00;94462.91;5035672;28;20206;-84
2022/11/06 09:18:46;;;;;;;29.20;21.10;;;;;;;14.32;100.00;94473.81;5030254;28;20238;-85
2022/11/06 09:21:14;;;;;;;34.30;21.13;;;;;;;14.38;100.00;94470.25;5048296;28;20213;-84
2022/11/06 09:23:48;;;;;;;33.67;21.57;;;;;;;14.52;100.00;94477.47;5033634;28;20206;-85
2022/11/06 09:26:15;;;;;;;32.20;20.20;;;;;;;14.66;100.00;94470.06;5033199;28;20212;-84
2022/11/06 09:28:42;;;;;;;30.07;20.40;;;;;;;14.64;100.00;94472.91;5036991;28;20209;-84
2022/11/06 09:31:09;;;;;;;26.37;18.47;;;;;;;14.49;100.00;94472.75;5037213;28;20206;-84
2022/11/06 09:33:36;;;;;;;25.00;17.33;;;;;;;14.40;100.00;94455.91;5045743;28;20210;-84
2022/11/06 09:36:04;;;;;;;29.47;19.20;;;;;;;14.60;100.00;94471.03;5029953;28;20207;-84
2022/11/06 09:38:32;;;;;;;27.70;17.40;;;;;;;14.69;100.00;94480.78;5031545;28;20203;-84
2022/11/06 09:41:01;;;;;;;26.43;17.47;;;;;;;14.70;100.00;94471.13;5034094;28;20206;-84
2022/11/06 09:43:47;;;;;;;26.83;18.27;;;;;;;14.69;100.00;94478.19;5048477;28;20202;-89
2022/11/06 09:46:24;;;;;;;25.50;16.83;;;;;;;14.36;100.00;94449.59;5033252;28;20589;-90
2022/11/06 09:48:57;;;;;;;26.00;16.27;;;;;;;14.13;100.00;94489.06;5040555;28;20204;-90
2022/11/06 09:51:33;;;;;;;20.67;15.30;;;;;;;13.81;100.00;94483.69;5026643;28;20202;-80
2022/11/06 09:54:10;;;;;;;23.70;15.87;;;;;;;13.84;100.00;94480.59;5024051;28;20710;-80
2022/11/06 09:56:40;;;;;;;27.20;16.67;;;;;;;13.96;100.00;94483.88;5024189;28;20662;-82
2022/11/06 09:59:14;;;;;;;24.07;16.23;;;;;;;14.06;100.00;94475.38;5039290;28;20696;-80
2022/11/06 10:01:45;;;;;;;24.43;17.93;;;;;;;14.19;100.00;94483.66;5033936;28;20205;-80
2022/11/06 10:04:25;;;;;;;21.90;15.83;;;;;;;14.29;100.00;94480.34;5021666;28;20206;-81
2022/11/06 10:06:53;;;;;;;20.37;14.80;;;;;;;14.41;100.00;94478.41;5025503;28;20211;-83
2022/11/06 10:09:21;;;;;;;19.20;14.33;;;;;;;14.49;100.00;94474.56;5039504;28;20206;-82
2022/11/06 10:12:03;;;;;;;23.10;13.97;;;;;;;14.60;100.00;94477.03;5023023;28;20207;-81
2022/11/06 10:14:45;;;;;;;17.63;13.70;;;;;;;14.65;100.00;94474.50;5023068;28;20655;-79
2022/11/06 10:17:27;;;;;;;18.17;12.20;;;;;;;14.67;100.00;94476.84;5020055;28;20658;-78
2022/11/06 10:20:01;;;;;;;17.60;13.03;;;;;;;14.43;100.00;94478.94;5018004;28;20223;-80
2022/11/06 10:22:35;;;;;;;19.03;12.80;;;;;;;14.11;100.00;94473.59;5020310;28;20254;-79
2022/11/06 10:25:18;;;;;;;17.53;12.97;;;;;;;13.92;100.00;94477.56;5029758;28;20212;-79
2022/11/06 10:27:57;;;;;;;23.23;13.90;;;;;;;14.01;100.00;94476.09;5025777;28;20198;-79
2022/11/06 10:30:24;;;;;;;18.67;13.70;;;;;;;14.12;100.00;94477.00;5025433;28;20199;-80
2022/11/06 10:33:16;;;;;;;18.43;13.33;;;;;;;14.27;100.00;94481.63;5025386;28;20198;-79
2022/11/06 10:35:50;;;;;;;19.17;12.43;;;;;;;14.40;100.00;94479.44;5034437;28;20642;-77
2022/11/06 10:38:21;;;;;;;18.57;13.03;;;;;;;14.45;100.00;94482.13;5032868;28;20557;-81
2022/11/06 10:40:50;;;;;;;16.70;12.97;;;;;;;14.23;100.00;94479.50;5022114;28;20218;-81
2022/11/06 10:43:29;;;;;;;15.70;12.03;;;;;;;13.68;100.00;94475.41;5031274;28;20229;-80
2022/11/06 10:46:03;;;;;;;19.37;14.33;;;;;;;13.54;100.00;94470.53;5037717;28;20198;-80
2022/11/06 10:48:31;;;;;;;24.77;15.37;;;;;;;13.69;100.00;94476.97;5018710;28;20192;-79
2022/11/06 10:51:20;;;;;;;23.07;12.83;;;;;;;13.88;100.00;94473.84;5017743;28;20200;-78
2022/11/06 10:54:02;;;;;;;18.13;12.77;;;;;;;14.18;100.00;94473.41;5021448;28;20202;-78
2022/11/06 10:56:55;;;;;;;14.87;11.73;;;;;;;14.48;100.00;94479.03;5016673;28;20198;-77
2022/11/06 10:59:22;;;;;;;16.23;9.73;;;;;;;14.65;100.00;94473.69;5026195;28;20269;-78
2022/11/06 11:01:49;;;;;;;11.07;9.07;;;;;;;14.69;100.00;94487.84;5028326;28;20231;-77
2022/11/06 11:04:16;;;;;;;13.03;8.70;;;;;;;14.79;100.00;94485.34;5019787;28;20198;-77
2022/11/06 11:06:43;;;;;;;11.87;9.13;;;;;;;14.86;100.00;94480.72;5029155;28;20228;-78
2022/11/06 11:09:28;;;;;;;12.90;9.80;;;;;;;14.96;100.00;94483.41;5021626;28;20198;-79
2022/11/06 11:11:57;;;;;;;13.03;9.90;;;;;;;15.03;100.00;94483.19;5018099;28;20241;-76
2022/11/06 11:14:25;;;;;;;12.83;9.43;;;;;;;15.06;100.00;94485.31;5019269;28;20203;-77
2022/11/06 11:16:52;;;;;;;13.63;9.03;;;;;;;15.11;100.00;94487.97;5017393;28;20198;-77
2022/11/06 11:19:26;;;;;;;11.03;8.60;;;;;;;15.10;100.00;94479.31;5014988;28;20223;-78
2022/11/06 11:21:56;;;;;;;11.37;8.67;;;;;;;15.12;100.00;94484.31;5024451;28;20234;-77
2022/11/06 11:24:23;;;;;;;11.23;8.43;;;;;;;15.09;100.00;94476.97;5018548;28;20195;-76
2022/11/06 11:26:52;;;;;;;10.47;8.30;;;;;;;15.08;100.00;94473.56;5014955;28;20199;-77
2022/11/06 11:29:24;;;;;;;10.97;8.50;;;;;;;15.07;100.00;94477.19;5015861;28;20198;-73
2022/11/06 11:31:54;;;;;;;14.33;9.20;;;;;;;15.14;100.00;94469.16;5017047;28;20713;-77
2022/11/06 11:34:23;;;;;;;12.13;9.53;;;;;;;15.22;100.00;94479.94;5016716;28;20212;-79
2022/11/06 11:36:57;;;;;;;14.97;10.40;;;;;;;15.14;100.00;94464.72;5015718;28;20650;-79
2022/11/06 11:39:28;;;;;;;11.87;9.90;;;;;;;15.11;100.00;94456.56;5016952;28;20214;-79
2022/11/06 11:42:16;;;;;;;15.33;11.00;;;;;;;15.26;100.00;94470.56;5016397;28;20215;-78